Nederlandse vliegveldverwachtingen (TAF)

Luchtvaartmeteorologische informatie voor operationeel gebruik en vluchtvoorbereiding is beschikbaar op www.luchtvaartmeteo.nl.

ZCZC
FT152300 EHAM     AMSTERDAM/SCHIPHOL   NLD   -3 m.
TAF EHAM 152250Z 1600/1706 19006KT 9999 FEW024 BKN030
    PROB30 TEMPO 1603/1608 SCT009 BKN012
    BECMG 1607/1610 22012KT
    BECMG 1616/1619 VRB03KT CAVOK
    TEMPO 1617/1701 5000 RA SCT030
    PROB30 TEMPO 1701/1706 4000 BR=

ZCZC
FT152300 EHBK     MAASTRICHT/MAASTRICHT-AACHEN   NLD   114 m.
TAF EHBK 152251Z 1600/1706 19007KT CAVOK
    TEMPO 1703/1706 6000 RA=

ZCZC
FT152300 EHGG     GRONINGEN/EELDE   NLD   5 m.
TAF EHGG 152251Z 1600/1706 19005KT CAVOK
    PROB30 1600/1606 6000
    BECMG 1605/1608 21012KT
    PROB30 1605/1609 BKN014
    BECMG 1616/1619 27005KT
    BECMG 1620/1623 5000 RA
    BECMG 1703/1706 9999 NSW=

ZCZC
FT152300 EHRD     ROTTERDAM/THE HAGUE AIRPORT   NLD   -5 m.
TAF EHRD 152250Z 1600/1706 19006KT 9999 SCT025
    PROB30 TEMPO 1603/1608 SCT009 BKN012
    BECMG 1607/1610 22012KT
    BECMG 1616/1619 VRB03KT CAVOK
    TEMPO 1617/1701 5000 RA SCT030
    PROB30 TEMPO 1701/1706 4000 BR=

ZCZC
FT152300 EHEH     EINDHOVEN/EINDHOVEN   NLD   22 m.
TAF EHEH 152302Z 1600/1706 19006KT CAVOK
    BECMG 1606/1609 21007G17KT
    BECMG 1617/1619 30007KT
    PROB30 TEMPO 1702/1706 4000 SHRA TSRA FEW012 SCT030
    SCT060CB BKN070
    BECMG 1703/1706 VRB03KT=

ZCZC
FC160100 EHGR     GILZE-RIJEN/GILZE-RIJEN   NLD   14 m.
TAF EHGR 160100Z NIL=

ZCZC
FC160100 EHKD     DE KOOY/DE KOOY   NLD   1 m.
TAF EHKD 160002Z 1601/1613 22013KT 9999 FEW019 BKN025
    BECMG 1601/1603 FEW007 SCT010 BKN012
    BECMG 1605/1608 23017G27KT FEW012 BKN015
    BECMG 1611/1613 FEW016 SCT025=

ZCZC
FC160100 EHLW     LEEUWARDEN/LEEUWARDEN   NLD   1 m.
TAF EHLW 160100Z NIL=

ZCZC
FC160100 EHVK     VOLKEL/VOLKEL   NLD   21 m.
TAF EHVK 160100Z NIL=

ZCZC
FC160100 EHWO     WOENSDRECHT/WOENSDRECHT   NLD   19 m.
TAF EHWO 160100Z NIL=

16/08/2018 03.15 uur LT